Time;durP1;ratioP1;P1;durP2;ratioP2;P2;SDS_P1;SDS_P2;PMS_P1;PMS_P2;Temp;Humidity;BMP_temperature;BMP_pressure;BME280_temperature;BME280_humidity;BME280_pressure;Samples;Min_cycle;Max_cycle;Signal;HPM_P1;HPM_P2
2023/06/10 00:00:51;;;;;;;6.45;5.10;;;14.60;1.00;15.60;93883.00;;;;7385468;19;20208;-80
2023/06/10 00:03:26;;;;;;;6.82;5.57;;;14.50;1.00;15.50;93893.00;;;;7383919;19;20511;-80
2023/06/10 00:06:00;;;;;;;9.55;5.47;;;14.40;1.00;15.40;93893.00;;;;7383988;19;20155;-79
2023/06/10 00:08:37;;;;;;;7.32;5.90;;;14.30;1.00;15.40;93871.00;;;;7385830;19;20189;-80
2023/06/10 00:11:11;;;;;;;5.90;5.30;;;14.30;1.00;15.40;93900.00;;;;7386286;19;20132;-80
2023/06/10 00:13:38;;;;;;;6.90;5.80;;;14.20;1.00;15.30;93888.00;;;;7386956;19;20121;-80
2023/06/10 00:16:12;;;;;;;6.53;5.93;;;14.10;1.00;15.30;93881.00;;;;7391343;19;20263;-80
2023/06/10 00:18:46;;;;;;;8.52;6.13;;;14.10;1.00;15.20;93889.00;;;;7389731;19;20117;-79
2023/06/10 00:21:20;;;;;;;7.95;6.32;;;14.00;1.00;15.30;93864.00;;;;7389632;19;20155;-79
2023/06/10 00:23:55;;;;;;;9.02;6.03;;;14.00;1.00;15.40;93879.00;;;;7387545;19;20197;-79
2023/06/10 00:26:23;;;;;;;6.93;6.18;;;14.00;1.00;15.20;93886.00;;;;7384360;19;20150;-79
2023/06/10 00:28:57;;;;;;;5.85;5.20;;;14.00;1.00;15.30;93863.00;;;;7384343;19;20132;-79
2023/06/10 00:31:31;;;;;;;9.45;5.95;;;14.00;1.00;15.20;93891.00;;;;7384807;19;20530;-80
2023/06/10 00:34:07;;;;;;;8.43;6.40;;;14.00;1.00;15.30;93882.00;;;;7386955;19;20572;-80
2023/06/10 00:36:43;;;;;;;9.73;6.05;;;14.00;1.00;15.20;93873.00;;;;7384082;19;20124;-80
2023/06/10 00:39:17;;;;;;;7.15;6.45;;;14.00;4.80;15.20;93866.00;;;;7384055;19;20198;-79
2023/06/10 00:41:44;;;;;;;7.18;6.47;;;13.90;5.60;15.20;93885.00;;;;7375331;19;20132;-80
2023/06/10 00:44:12;;;;;;;8.93;6.15;;;13.90;20.50;15.10;93887.00;;;;7379419;19;20834;-80
2023/06/10 00:46:46;;;;;;;6.15;5.55;;;13.90;22.60;15.20;93875.00;;;;7383870;19;20133;-80
2023/06/10 00:49:20;;;;;;;7.25;6.53;;;13.90;16.50;15.30;93877.00;;;;7386936;19;20139;-80
2023/06/10 00:51:54;;;;;;;7.03;6.22;;;13.90;53.70;15.00;93887.00;;;;7384816;19;20162;-81
2023/06/10 00:54:30;;;;;;;6.22;5.63;;;13.90;82.80;14.80;93875.00;;;;7384145;19;20137;-80
2023/06/10 00:57:05;;;;;;;5.97;5.38;;;13.90;61.00;14.70;93881.00;;;;7386133;19;20599;-80
2023/06/10 00:59:43;;;;;;;6.65;5.30;;;13.80;57.50;14.70;93883.00;;;;7383971;19;20162;-81
2023/06/10 01:02:23;;;;;;;6.68;6.05;;;13.80;52.90;14.70;93876.00;;;;7375506;19;20202;-75
2023/06/10 01:04:59;;;;;;;6.15;5.55;;;13.80;74.30;14.70;93871.00;;;;7391206;19;20159;-75
2023/06/10 01:08:10;;;;;;;7.85;6.18;;;13.70;93.10;14.70;93888.00;;;;7390488;19;20125;-75
2023/06/10 01:11:13;;;;;;;7.03;6.28;;;13.60;99.90;14.80;93880.00;;;;7390899;19;20128;-74
2023/06/10 01:13:54;;;;;;;7.00;6.30;;;13.70;99.90;14.90;93866.00;;;;7389214;19;20180;-74
2023/06/10 01:16:23;;;;;;;7.20;6.35;;;13.70;99.90;14.90;93883.00;;;;7391887;19;20128;-75
2023/06/10 01:18:57;;;;;;;6.82;6.20;;;13.70;99.90;14.80;93853.00;;;;7391006;19;20129;-74
2023/06/10 01:21:26;;;;;;;6.90;6.20;;;13.70;99.90;14.60;93880.00;;;;7390105;19;20160;-77
2023/06/10 01:24:01;;;;;;;13.57;6.20;;;13.60;99.90;14.50;93881.00;;;;7392089;19;20602;-75
2023/06/10 01:26:34;;;;;;;6.80;6.10;;;13.50;99.90;14.60;93877.00;;;;7389678;19;20211;-74
2023/06/10 01:29:39;;;;;;;6.88;6.25;;;13.40;99.90;14.60;93876.00;;;;7390958;19;20128;-74
2023/06/10 01:32:26;;;;;;;10.30;6.40;;;13.40;99.90;14.80;93831.00;;;;7390205;19;20176;-74
2023/06/10 01:35:03;;;;;;;9.35;6.32;;;13.50;99.90;14.80;93870.00;;;;7389364;19;20209;-74
2023/06/10 01:37:32;;;;;;;6.63;5.97;;;13.60;99.90;14.70;93884.00;;;;7390798;19;20500;-72
2023/06/10 01:40:08;;;;;;;6.43;5.82;;;13.60;99.90;14.70;93849.00;;;;7392243;19;20573;-73
2023/06/10 01:42:42;;;;;;;10.13;6.40;;;13.60;99.90;14.60;93870.00;;;;7390255;19;20477;-75
2023/06/10 01:45:16;;;;;;;6.53;5.93;;;13.60;99.90;14.50;93859.00;;;;7389971;19;20198;-75
2023/06/10 01:47:43;;;;;;;7.63;6.00;;;13.60;99.90;14.50;93877.00;;;;7387123;19;20121;-74
2023/06/10 01:50:12;;;;;;;13.65;6.32;;;13.60;99.90;14.60;93869.00;;;;7391204;19;20125;-74
2023/06/10 01:52:46;;;;;;;7.35;6.45;;;13.60;99.90;14.60;93881.00;;;;7391148;19;20132;-72
2023/06/10 01:55:20;;;;;;;8.73;5.90;;;13.70;99.90;14.60;93879.00;;;;7388332;19;20121;-76
2023/06/10 01:57:54;;;;;;;6.95;6.25;;;13.60;99.90;14.50;93867.00;;;;7390949;19;20162;-76
2023/06/10 02:00:28;;;;;;;7.05;6.07;;;13.60;99.90;14.50;93889.00;;;;7385478;19;20146;-78
2023/06/10 02:03:08;;;;;;;7.45;6.60;;;13.50;99.90;14.50;93886.00;;;;7387670;19;20144;-77
2023/06/10 02:05:36;;;;;;;8.73;6.45;;;13.50;99.90;14.70;93876.00;;;;7388922;19;20549;-75
2023/06/10 02:08:11;;;;;;;8.38;5.97;;;13.60;99.90;14.60;93841.00;;;;7384000;19;20197;-77
2023/06/10 02:10:38;;;;;;;7.20;6.38;;;13.50;99.90;14.50;93865.00;;;;7386795;19;20639;-77
2023/06/10 02:13:12;;;;;;;6.68;6.05;;;13.50;99.90;14.40;93883.00;;;;7386283;19;20159;-77
2023/06/10 02:15:39;;;;;;;7.45;6.72;;;13.40;99.90;14.40;93879.00;;;;7387250;19;20139;-76
2023/06/10 02:18:13;;;;;;;7.45;6.10;;;13.40;99.90;14.30;93864.00;;;;7387360;19;20180;-76
2023/06/10 02:20:40;;;;;;;8.18;5.88;;;13.30;99.90;14.40;93888.00;;;;7389245;19;20117;-77
2023/06/10 02:23:14;;;;;;;7.07;6.38;;;13.30;99.90;14.40;93888.00;;;;7390602;19;20163;-76
2023/06/10 02:25:43;;;;;;;7.07;6.35;;;13.30;99.90;14.30;93876.00;;;;7387153;19;20132;-75
2023/06/10 02:28:17;;;;;;;6.90;6.20;;;13.20;99.90;14.20;93884.00;;;;7384951;19;20120;-76
2023/06/10 02:30:46;;;;;;;6.72;5.80;;;13.20;99.90;14.30;93906.00;;;;7387894;19;20713;-78
2023/06/10 02:33:14;;;;;;;6.72;6.05;;;13.20;99.90;14.20;93869.00;;;;7386559;19;20125;-76
2023/06/10 02:35:48;;;;;;;8.05;6.53;;;13.10;99.90;14.10;93902.00;;;;7387914;19;20124;-74
2023/06/10 02:38:16;;;;;;;7.50;6.13;;;13.00;99.90;14.30;93869.00;;;;7388304;19;20161;-75
2023/06/10 02:40:43;;;;;;;7.65;6.95;;;13.00;99.90;14.20;93903.00;;;;7386947;19;20141;-77
2023/06/10 02:43:17;;;;;;;6.82;6.13;;;13.00;99.90;14.30;93901.00;;;;7386694;19;20497;-76
2023/06/10 02:45:51;;;;;;;6.88;5.75;;;13.10;99.90;14.20;93895.00;;;;7387454;19;20129;-76
2023/06/10 02:48:27;;;;;;;9.02;6.35;;;13.10;99.90;14.10;93875.00;;;;7385091;19;20132;-76
2023/06/10 02:51:01;;;;;;;7.93;6.18;;;13.10;99.90;14.10;93889.00;;;;7385116;19;20491;-78
2023/06/10 02:53:28;;;;;;;6.70;6.10;;;13.10;99.90;14.00;93874.00;;;;7386483;19;20132;-75
2023/06/10 02:56:03;;;;;;;6.00;5.50;;;13.00;99.90;13.90;93893.00;;;;7387311;19;20171;-76
2023/06/10 02:58:30;;;;;;;7.57;6.40;;;12.90;99.90;13.90;93900.00;;;;7384047;19;20164;-75
2023/06/10 03:01:11;;;;;;;8.45;6.40;;;12.80;99.90;14.00;93874.00;;;;7384757;19;20149;-78
2023/06/10 03:03:46;;;;;;;6.15;5.55;;;12.80;99.90;14.10;93902.00;;;;7388089;19;20120;-78
2023/06/10 03:06:20;;;;;;;5.93;5.38;;;12.90;99.90;14.20;93911.00;;;;7385999;19;20136;-77
2023/06/10 03:09:14;;;;;;;6.18;5.53;;;12.90;99.90;14.00;93885.00;;;;7386386;19;20458;-77
2023/06/10 03:11:48;;;;;;;6.90;6.15;;;12.90;99.90;13.90;93904.00;;;;7386874;19;20223;-76
2023/06/10 03:14:22;;;;;;;5.68;5.07;;;12.80;99.90;13.80;93906.00;;;;7386726;19;20612;-77
2023/06/10 03:16:56;;;;;;;6.50;5.78;;;12.70;99.90;13.70;93881.00;;;;7387010;19;20200;-78
2023/06/10 03:19:23;;;;;;;7.57;5.50;;;12.70;1.00;13.70;93907.00;;;;7384769;19;20132;-76
2023/06/10 03:22:15;;;;;;;7.38;6.28;;;12.60;1.00;13.80;93912.00;;;;7386898;19;20129;-77
2023/06/10 03:24:51;;;;;;;7.78;5.88;;;12.60;1.00;13.70;93901.00;;;;7385454;19;20144;-77
2023/06/10 03:27:25;;;;;;;6.43;5.20;;;12.50;1.00;13.70;93901.00;;;;7383448;19;20121;-78
2023/06/10 03:29:59;;;;;;;8.57;6.00;;;12.50;1.00;13.70;93908.00;;;;7387252;19;20479;-79
2023/06/10 03:32:33;;;;;;;10.60;6.00;;;12.50;1.00;13.80;93904.00;;;;7385313;19;20153;-76
2023/06/10 03:35:01;;;;;;;7.15;6.45;;;12.50;1.00;13.90;93919.00;;;;7384880;19;20125;-77
2023/06/10 03:37:36;;;;;;;6.47;5.88;;;12.60;1.00;14.00;93909.00;;;;7383502;19;20121;-78
2023/06/10 03:40:05;;;;;;;7.25;6.03;;;12.60;1.00;13.90;93910.00;;;;7386786;19;20646;-77
2023/06/10 03:42:39;;;;;;;6.68;6.07;;;12.60;1.00;14.10;93910.00;;;;7385485;19;20132;-76
2023/06/10 03:45:07;;;;;;;7.45;6.30;;;12.70;1.00;14.00;93901.00;;;;7385693;19;20650;-77
2023/06/10 03:47:42;;;;;;;8.85;6.65;;;12.70;1.00;14.00;93899.00;;;;7385648;19;20128;-77
2023/06/10 03:50:10;;;;;;;7.22;6.10;;;12.80;1.00;13.90;93910.00;;;;7384317;19;20169;-77
2023/06/10 03:52:45;;;;;;;9.02;6.10;;;12.80;1.00;14.10;93916.00;;;;7387145;19;20132;-76
2023/06/10 03:55:16;;;;;;;6.95;6.13;;;12.70;1.00;14.00;93892.00;;;;7384079;19;20145;-77
2023/06/10 03:57:50;;;;;;;6.47;5.88;;;12.70;1.00;13.90;93914.00;;;;7383926;19;20129;-77
2023/06/10 04:00:24;;;;;;;6.22;5.32;;;12.70;1.00;13.90;93896.00;;;;7384068;19;20136;-77
2023/06/10 04:03:06;;;;;;;10.98;6.82;;;12.70;1.00;14.00;93912.00;;;;7383495;19;20219;-77
2023/06/10 04:05:34;;;;;;;6.30;5.72;;;12.70;1.00;14.00;93900.00;;;;7384025;19;20136;-78
2023/06/10 04:08:08;;;;;;;6.28;5.68;;;12.70;1.00;14.00;93916.00;;;;7385854;19;20125;-79
2023/06/10 04:10:49;;;;;;;7.15;5.88;;;12.70;1.00;14.00;93925.00;;;;7383252;19;20128;-77
2023/06/10 04:13:16;;;;;;;6.43;5.45;;;12.80;1.00;14.10;93894.00;;;;7383008;19;20463;-77
2023/06/10 04:15:50;;;;;;;7.60;6.28;;;12.80;1.00;14.20;93914.00;;;;7384241;19;20128;-77
2023/06/10 04:18:18;;;;;;;5.97;5.43;;;12.90;1.00;14.20;93927.00;;;;7383616;19;20124;-77
2023/06/10 04:20:52;;;;;;;5.95;5.35;;;12.90;1.00;14.20;93905.00;;;;7384063;19;20121;-77
2023/06/10 04:23:20;;;;;;;6.63;5.78;;;13.00;1.00;14.20;93925.00;;;;7383967;19;20543;-76
2023/06/10 04:25:54;;;;;;;5.85;5.35;;;13.00;1.00;14.20;93911.00;;;;7385503;19;20468;-77
2023/06/10 04:28:28;;;;;;;5.93;5.43;;;13.00;1.00;14.20;93932.00;;;;7384235;19;20248;-76
2023/06/10 04:31:03;;;;;;;9.32;5.55;;;13.00;1.00;14.30;93919.00;;;;7383734;19;20129;-75
2023/06/10 04:33:37;;;;;;;6.35;5.75;;;13.00;1.00;14.30;93933.00;;;;7383617;19;20132;-74
2023/06/10 04:36:06;;;;;;;6.63;5.72;;;13.10;1.00;14.30;93930.00;;;;7383703;19;20457;-75
2023/06/10 04:38:41;;;;;;;5.53;4.60;;;13.10;1.00;14.50;93911.00;;;;7388797;19;20120;-74
2023/06/10 04:41:08;;;;;;;5.97;4.47;;;13.20;1.00;14.70;93934.00;;;;7387855;19;20136;-74
2023/06/10 04:43:42;;;;;;;6.38;5.28;;;13.30;1.00;14.80;93925.00;;;;7391742;19;20129;-75
2023/06/10 04:46:10;;;;;;;9.70;5.30;;;13.40;1.00;14.90;93929.00;;;;7390572;19;20125;-74
2023/06/10 04:48:46;;;;;;;5.28;4.30;;;13.60;1.00;15.10;93928.00;;;;7388152;19;20132;-73
2023/06/10 04:51:14;;;;;;;5.88;4.80;;;13.60;1.00;15.20;93894.00;;;;7389545;19;20136;-73
2023/06/10 04:53:48;;;;;;;4.65;4.15;;;13.80;99.90;15.40;93926.00;;;;7389832;19;20580;-74
2023/06/10 04:56:16;;;;;;;6.97;4.50;;;14.00;99.90;15.60;93923.00;;;;7391084;19;20129;-73
2023/06/10 04:58:50;;;;;;;5.10;4.60;;;14.20;99.90;15.70;93936.00;;;;7391464;19;20131;-76
2023/06/10 05:01:25;;;;;;;5.10;4.60;;;14.30;99.90;15.90;93930.00;;;;7387446;19;20163;-74
2023/06/10 05:04:06;;;;;;;4.97;4.47;;;14.50;99.90;16.10;93911.00;;;;7390960;19;20129;-74
2023/06/10 05:06:40;;;;;;;7.15;4.55;;;14.60;99.90;16.20;93893.00;;;;7392151;19;20125;-72
2023/06/10 05:09:09;;;;;;;5.97;4.65;;;14.80;99.90;16.40;93929.00;;;;7388874;19;20132;-74
2023/06/10 05:11:44;;;;;;;5.97;4.90;;;15.00;99.90;16.50;93929.00;;;;7386964;19;20134;-73
2023/06/10 05:14:20;;;;;;;5.28;4.78;;;15.10;99.90;16.70;93910.00;;;;7389000;19;20488;-74
2023/06/10 05:16:54;;;;;;;6.38;4.68;;;15.40;99.90;16.80;93914.00;;;;7388426;19;20576;-72
2023/06/10 05:19:29;;;;;;;6.60;4.65;;;15.50;99.90;17.10;93919.00;;;;7385344;19;20565;-73
2023/06/10 05:21:57;;;;;;;6.78;4.82;;;15.70;99.90;17.30;93923.00;;;;7389436;19;20129;-73
2023/06/10 05:24:32;;;;;;;5.78;5.18;;;15.80;99.90;17.50;93920.00;;;;7391158;19;20129;-75
2023/06/10 05:27:00;;;;;;;8.02;5.50;;;15.90;99.90;17.60;93937.00;;;;7390957;19;20139;-74
2023/06/10 05:29:34;;;;;;;6.05;5.13;;;16.10;59.20;17.80;93916.00;;;;7390101;19;20180;-74
2023/06/10 05:32:03;;;;;;;7.78;5.18;;;16.20;67.20;17.80;93910.00;;;;7390938;19;20121;-74
2023/06/10 05:34:37;;;;;;;6.15;5.13;;;16.30;9.40;17.70;93941.00;;;;7388741;19;20638;-73
2023/06/10 05:37:10;;;;;;;7.72;5.00;;;16.40;1.00;18.00;93937.00;;;;7388506;19;20218;-75
2023/06/10 05:39:47;;;;;;;5.88;5.38;;;16.60;11.50;17.90;93932.00;;;;7390330;19;20580;-75
2023/06/10 05:42:20;;;;;;;7.65;6.00;;;16.70;1.00;18.10;93937.00;;;;7387872;19;20662;-74
2023/06/10 05:44:54;;;;;;;5.80;5.25;;;16.80;1.00;18.10;93938.00;;;;7388161;19;20136;-76
2023/06/10 05:47:22;;;;;;;6.20;5.40;;;16.90;1.00;18.30;93909.00;;;;7386755;19;20481;-73
2023/06/10 05:50:06;;;;;;;5.25;4.75;;;17.10;1.00;18.60;93924.00;;;;7385209;19;20132;-73
2023/06/10 05:52:35;;;;;;;6.28;5.38;;;17.20;1.00;18.90;93939.00;;;;7390866;19;20124;-75
2023/06/10 05:55:10;;;;;;;8.50;6.25;;;17.40;1.00;18.90;93947.00;;;;7369423;19;20128;-74
2023/06/10 05:57:38;;;;;;;5.28;4.78;;;17.60;1.00;19.20;93948.00;;;;7376291;19;20125;-74
2023/06/10 06:00:14;;;;;;;6.40;4.80;;;17.90;1.00;19.80;93931.00;;;;7376673;19;20116;-74
2023/06/10 06:02:48;;;;;;;6.18;5.25;;;18.30;1.00;20.10;93926.00;;;;7379813;19;20992;-74
2023/06/10 06:05:37;;;;;;;5.05;4.55;;;18.80;1.00;20.50;93953.00;;;;7379371;19;20132;-76
2023/06/10 06:08:13;;;;;;;5.05;4.55;;;19.10;1.00;20.50;93950.00;;;;7377485;19;20210;-76
2023/06/10 06:10:40;;;;;;;5.97;5.38;;;19.30;1.00;20.70;93928.00;;;;7378509;19;20127;-75
2023/06/10 06:13:14;;;;;;;5.97;5.38;;;19.50;1.00;21.50;93949.00;;;;7381158;19;20132;-74
2023/06/10 06:15:49;;;;;;;5.47;4.97;;;19.60;1.00;22.10;93944.00;;;;7377554;19;20191;-72
2023/06/10 06:18:18;;;;;;;5.95;4.65;;;19.80;1.00;22.30;93954.00;;;;7378823;19;20183;-73
2023/06/10 06:20:54;;;;;;;6.00;5.40;;;20.00;1.00;22.80;93952.00;;;;7376135;19;20135;-75
2023/06/10 06:23:27;;;;;;;5.30;4.80;;;20.10;1.00;22.70;93915.00;;;;7374211;19;20124;-73
2023/06/10 06:25:55;;;;;;;5.00;4.50;;;20.40;1.00;23.30;93919.00;;;;7373454;19;20516;-73
2023/06/10 06:28:30;;;;;;;6.30;5.00;;;20.50;1.00;23.40;93938.00;;;;7381110;19;20128;-75
2023/06/10 06:31:04;;;;;;;5.35;4.75;;;20.50;1.00;23.90;93950.00;;;;7384701;19;20133;-75
2023/06/10 06:33:38;;;;;;;5.10;4.60;;;20.60;1.00;23.70;93965.00;;;;7387833;19;20128;-75
2023/06/10 06:36:06;;;;;;;5.80;4.70;;;20.70;1.00;23.60;93941.00;;;;7386583;19;20161;-76
2023/06/10 06:38:39;;;;;;;6.78;5.63;;;20.80;1.00;24.10;93919.00;;;;7385352;19;20157;-76
2023/06/10 06:41:08;;;;;;;5.10;4.70;;;20.80;1.00;24.10;93942.00;;;;7382021;19;20309;-74
2023/06/10 06:43:42;;;;;;;6.28;4.97;;;20.80;1.00;24.30;93912.00;;;;7372453;19;20125;-74
2023/06/10 06:46:10;;;;;;;6.80;4.90;;;21.00;1.00;24.10;93970.00;;;;7374086;19;20157;-75
2023/06/10 06:48:44;;;;;;;6.75;5.70;;;21.10;1.00;23.90;93964.00;;;;7377203;19;20130;-76
2023/06/10 06:51:18;;;;;;;8.07;5.68;;;21.10;1.00;24.10;93969.00;;;;7373454;19;20149;-73
2023/06/10 06:53:56;;;;;;;8.30;6.25;;;21.10;1.00;24.10;93977.00;;;;7372602;19;20125;-74
2023/06/10 06:56:30;;;;;;;5.88;5.25;;;21.10;1.00;23.90;93944.00;;;;7376035;19;24138;-74
2023/06/10 06:58:58;;;;;;;6.15;5.55;;;21.10;1.00;23.20;93967.00;;;;7372997;19;20140;-74
2023/06/10 07:01:38;;;;;;;5.95;5.35;;;21.10;1.00;22.70;93964.00;;;;7375413;19;21751;-74
2023/06/10 07:04:22;;;;;;;7.25;5.53;;;20.90;1.00;22.40;93987.00;;;;7371532;19;20147;-74
2023/06/10 07:06:56;;;;;;;6.90;5.78;;;20.90;1.00;22.40;93970.00;;;;7372736;19;20128;-74
2023/06/10 07:09:30;;;;;;;6.82;5.65;;;20.90;1.00;22.60;93991.00;;;;7371893;19;20195;-73
2023/06/10 07:11:59;;;;;;;5.70;5.15;;;20.90;1.00;22.10;93959.00;;;;7371746;19;20180;-75
2023/06/10 07:14:33;;;;;;;7.75;5.18;;;20.90;1.00;22.00;93992.00;;;;7370207;19;20577;-74
2023/06/10 07:17:02;;;;;;;5.68;5.15;;;20.90;1.00;22.40;93996.00;;;;7372860;19;20117;-73
2023/06/10 07:19:36;;;;;;;6.30;5.22;;;20.80;1.00;22.50;93972.00;;;;7370660;19;20175;-75
2023/06/10 07:22:08;;;;;;;7.43;5.70;;;20.90;1.00;22.70;93985.00;;;;7369150;19;20137;-73
2023/06/10 07:24:42;;;;;;;11.65;5.95;;;20.90;1.00;22.70;93995.00;;;;7373282;19;20593;-73
2023/06/10 07:27:16;;;;;;;5.63;5.07;;;21.00;1.00;22.70;93987.00;;;;7373016;19;20125;-75
2023/06/10 07:29:51;;;;;;;6.07;4.97;;;21.10;1.00;23.00;93979.00;;;;7372782;19;20145;-75
2023/06/10 07:32:22;;;;;;;5.20;4.70;;;21.10;1.00;22.90;93971.00;;;;7368694;19;20148;-77
2023/06/10 07:34:55;;;;;;;6.78;5.60;;;21.00;1.00;22.80;93975.00;;;;7371117;19;20132;-73
2023/06/10 07:37:23;;;;;;;7.30;5.05;;;21.20;1.00;23.20;93983.00;;;;7369712;19;20144;-74
2023/06/10 07:39:57;;;;;;;5.40;4.50;;;21.30;1.00;23.10;93974.00;;;;7368321;19;21213;-73
2023/06/10 07:42:24;;;;;;;5.80;4.60;;;21.40;1.00;23.00;93973.00;;;;7369800;19;21668;-74
2023/06/10 07:44:59;;;;;;;6.13;4.65;;;21.50;1.00;23.30;93946.00;;;;7371076;19;20152;-75
2023/06/10 07:47:28;;;;;;;4.40;4.00;;;21.50;1.00;23.20;93966.00;;;;7366582;19;20160;-75
2023/06/10 07:50:03;;;;;;;5.22;4.32;;;21.60;1.00;23.10;93979.00;;;;7377136;19;20131;-75
2023/06/10 07:52:31;;;;;;;6.43;4.60;;;21.60;1.00;23.10;93993.00;;;;7375274;19;20180;-75
2023/06/10 07:55:06;;;;;;;4.97;4.43;;;21.70;1.00;23.20;93958.00;;;;7376670;19;20124;-74
2023/06/10 07:57:36;;;;;;;4.90;4.50;;;21.80;1.00;23.10;93990.00;;;;7375582;19;21132;-75
2023/06/10 08:00:11;;;;;;;6.50;5.80;;;21.90;1.00;23.50;93977.00;;;;7374078;19;20717;-76
2023/06/10 08:02:39;;;;;;;7.60;5.05;;;22.00;1.00;23.80;93988.00;;;;7378266;19;22410;-74
2023/06/10 08:05:20;;;;;;;5.82;5.22;;;22.10;1.00;24.10;93955.00;;;;7377141;19;20121;-74
2023/06/10 08:07:48;;;;;;;6.35;5.68;;;22.30;1.00;24.10;93968.00;;;;7376409;19;20136;-76
2023/06/10 08:10:22;;;;;;;5.53;4.50;;;22.40;1.00;23.90;93991.00;;;;7377081;19;20610;-75
2023/06/10 08:12:59;;;;;;;5.47;4.50;;;22.40;1.00;24.00;93960.00;;;;7368870;19;20133;-75
2023/06/10 08:15:33;;;;;;;5.90;5.03;;;22.50;1.00;24.00;93982.00;;;;7372978;19;20155;-75
2023/06/10 08:18:01;;;;;;;6.05;5.00;;;22.60;1.00;24.40;93969.00;;;;7376789;19;20185;-76
2023/06/10 08:20:34;;;;;;;5.30;4.28;;;22.80;1.00;24.40;93959.00;;;;7370515;19;20162;-74
2023/06/10 08:23:08;;;;;;;5.65;4.97;;;22.90;1.00;24.40;93971.00;;;;7374203;19;20151;-74
2023/06/10 08:25:42;;;;;;;6.38;4.72;;;23.00;1.00;24.30;93989.00;;;;7374690;19;20131;-75
2023/06/10 08:28:16;;;;;;;5.10;4.60;;;22.90;1.00;24.10;93943.00;;;;7373764;19;20148;-76
2023/06/10 08:30:44;;;;;;;5.22;4.40;;;23.10;1.00;24.20;93982.00;;;;7375897;19;20675;-74
2023/06/10 08:33:17;;;;;;;4.93;4.53;;;23.00;1.00;24.20;93974.00;;;;7379011;19;20117;-75
2023/06/10 08:35:51;;;;;;;6.72;4.97;;;;;24.70;93987.00;;;;7376596;19;20125;-76
2023/06/10 08:38:25;;;;;;;5.32;4.63;;;22.80;99.90;25.10;93976.00;;;;7374609;19;20150;-76
2023/06/10 08:41:06;;;;;;;5.63;4.85;;;23.00;1.00;25.70;93975.00;;;;7374608;19;20158;-74
2023/06/10 08:43:41;;;;;;;5.97;5.38;;;23.00;1.00;25.70;93977.00;;;;7371570;19;20129;-75
2023/06/10 08:46:17;;;;;;;5.38;4.88;;;23.20;1.40;25.80;93956.00;;;;7369611;19;20165;-77
2023/06/10 08:48:51;;;;;;;19.60;5.70;;;23.40;99.90;26.10;93979.00;;;;7370412;19;20592;-74
2023/06/10 08:51:30;;;;;;;9.55;5.70;;;23.40;99.90;25.40;93981.00;;;;7372820;19;20541;-74
2023/06/10 08:54:08;;;;;;;6.53;4.53;;;23.40;1.40;25.60;93985.00;;;;7370419;19;20577;-75
2023/06/10 08:56:44;;;;;;;7.72;5.72;;;23.40;99.90;26.20;93985.00;;;;7369243;19;20260;-76
2023/06/10 08:59:12;;;;;;;6.65;5.65;;;23.60;99.90;25.90;93982.00;;;;7368025;19;20174;-75
2023/06/10 09:01:54;;;;;;;5.50;5.00;;;23.70;99.90;26.20;93987.00;;;;7366186;19;20240;-75
2023/06/10 09:04:28;;;;;;;5.47;4.88;;;23.80;99.90;26.60;93942.00;;;;7372336;19;20124;-75
2023/06/10 09:07:03;;;;;;;5.28;4.78;;;24.00;99.90;26.80;93973.00;;;;7367970;19;20148;-73
2023/06/10 09:09:38;;;;;;;5.50;5.03;;;24.10;99.90;26.60;93952.00;;;;7368787;19;20128;-75
2023/06/10 09:12:14;;;;;;;8.35;5.28;;;24.30;99.90;26.80;93974.00;;;;7369663;19;20128;-75
2023/06/10 09:14:47;;;;;;;7.20;4.85;;;24.50;99.90;27.30;93961.00;;;;7370825;19;20188;-74
2023/06/10 09:17:21;;;;;;;5.32;4.50;;;24.70;99.90;26.30;93985.00;;;;7367866;19;20145;-74
2023/06/10 09:19:50;;;;;;;5.90;4.95;;;24.50;99.90;25.80;93956.00;;;;7367604;19;20739;-75
2023/06/10 09:22:26;;;;;;;5.63;5.05;;;24.10;99.90;26.10;93961.00;;;;7370991;19;20162;-75
2023/06/10 09:25:04;;;;;;;8.10;5.47;;;24.20;99.90;26.70;93978.00;;;;7380780;19;20585;-76
2023/06/10 09:27:50;;;;;;;5.72;5.20;;;24.50;99.90;26.70;93973.00;;;;7380846;19;20620;-75
2023/06/10 09:30:28;;;;;;;6.15;5.22;;;24.60;99.90;26.20;93977.00;;;;7377630;19;20136;-77
2023/06/10 09:33:11;;;;;;;10.13;6.15;;;24.80;99.90;26.50;93954.00;;;;7384939;19;20620;-76
2023/06/10 09:35:51;;;;;;;7.40;5.22;;;24.90;99.90;26.60;93970.00;;;;7386760;19;20149;-75
2023/06/10 09:38:31;;;;;;;10.13;5.00;;;25.20;99.90;27.00;93933.00;;;;7388482;19;20185;-77
2023/06/10 09:41:05;;;;;;;6.80;5.15;;;25.60;99.90;26.50;93997.00;;;;7385648;19;20573;-76
2023/06/10 09:43:45;;;;;;;5.82;5.15;;;25.80;99.90;26.60;93959.00;;;;7384719;19;20670;-76
2023/06/10 09:46:19;;;;;;;5.50;4.78;;;25.60;99.90;26.60;93932.00;;;;7387852;19;20264;-80
2023/06/10 09:48:48;;;;;;;4.90;4.40;;;25.60;99.90;26.80;93952.00;;;;7385333;19;20144;-74
2023/06/10 09:51:23;;;;;;;5.78;4.70;;;25.80;99.90;27.10;93954.00;;;;7384482;19;20567;-76
2023/06/10 09:53:54;;;;;;;5.55;4.22;;;26.00;99.90;27.60;93952.00;;;;7383106;19;20175;-79
2023/06/10 09:56:37;;;;;;;5.60;4.00;;;26.20;99.90;28.00;93960.00;;;;7386033;19;20612;-75
2023/06/10 09:59:06;;;;;;;5.75;4.32;;;26.20;99.90;28.10;93960.00;;;;7384590;19;20212;-76
2023/06/10 10:01:39;;;;;;;5.88;5.22;;;26.50;99.90;28.70;93950.00;;;;7384172;19;20159;-77
2023/06/10 10:04:30;;;;;;;5.97;4.53;;;26.80;99.90;28.40;93949.00;;;;7385279;19;20154;-74
2023/06/10 10:07:06;;;;;;;7.07;3.97;;;26.90;99.90;29.40;93962.00;;;;7379582;19;20164;-77
2023/06/10 10:09:41;;;;;;;4.93;4.45;;;27.30;99.90;29.30;93958.00;;;;7382255;19;20148;-77
2023/06/10 10:12:16;;;;;;;4.60;4.20;;;27.50;99.90;29.70;93950.00;;;;7381320;19;20155;-78
2023/06/10 10:14:52;;;;;;;7.20;4.82;;;27.80;99.90;30.30;93957.00;;;;7383090;19;20559;-81
2023/06/10 10:17:27;;;;;;;7.38;5.55;;;27.90;99.90;30.80;93960.00;;;;7381157;19;20648;-78
2023/06/10 10:20:06;;;;;;;5.88;4.57;;;27.80;99.90;29.20;93961.00;;;;7383640;19;20152;-80
2023/06/10 10:22:47;;;;;;;5.95;4.72;;;27.80;99.90;29.60;93972.00;;;;7384421;19;20609;-80
2023/06/10 10:25:24;;;;;;;6.60;4.10;;;27.50;99.90;29.90;93963.00;;;;7383098;19;20798;-77
2023/06/10 10:28:09;;;;;;;4.97;4.57;;;27.70;99.90;30.40;93943.00;;;;7381727;19;20569;-78
2023/06/10 10:30:49;;;;;;;5.68;4.90;;;;;31.00;93958.00;;;;7381363;19;20158;-78
2023/06/10 10:33:36;;;;;;;5.65;4.70;;;28.40;99.90;30.80;93993.00;;;;7381185;19;20142;-77
2023/06/10 10:36:10;;;;;;;5.97;4.97;;;;;29.20;93956.00;;;;7383319;19;20638;-77
2023/06/10 10:38:39;;;;;;;5.63;4.72;;;28.60;99.90;29.90;93942.00;;;;7381666;19;20144;-78
2023/06/10 10:41:20;;;;;;;5.68;5.18;;;28.70;99.90;30.50;93965.00;;;;7382840;19;20124;-79
2023/06/10 10:43:51;;;;;;;6.60;4.40;;;28.60;99.90;31.10;93941.00;;;;7380626;19;20596;-78
2023/06/10 10:46:25;;;;;;;5.32;4.60;;;28.80;99.90;31.00;93930.00;;;;7382063;19;20135;-79
2023/06/10 10:48:56;;;;;;;5.22;4.72;;;29.30;99.90;30.80;93939.00;;;;7381010;19;20131;-77
2023/06/10 10:51:35;;;;;;;7.72;4.40;;;29.50;99.90;29.90;93937.00;;;;7381563;19;20507;-77
2023/06/10 10:54:13;;;;;;;5.78;5.15;;;29.40;99.90;30.20;93961.00;;;;7380995;19;20148;-78
2023/06/10 10:57:28;;;;;;;6.88;5.03;;;29.30;99.90;29.20;94007.00;;;;7381695;19;20159;-79
2023/06/10 11:00:04;;;;;;;5.22;4.78;;;29.00;99.90;27.50;93965.00;;;;7383375;19;20208;-79
2023/06/10 11:02:42;;;;;;;5.15;4.75;;;28.00;99.90;26.40;94008.00;;;;7380884;19;20267;-77
2023/06/10 11:05:32;;;;;;;6.28;4.85;;;27.00;99.90;28.40;93958.00;;;;7380902;19;20212;-77
2023/06/10 11:08:09;;;;;;;5.10;4.65;;;26.90;99.90;30.10;93944.00;;;;7381285;19;20564;-79
2023/06/10 11:10:52;;;;;;;6.00;4.35;;;27.60;99.90;30.50;93955.00;;;;7380228;19;20227;-79
2023/06/10 11:13:28;;;;;;;5.55;5.00;;;28.50;99.90;30.80;93932.00;;;;7382616;19;20133;-77
2023/06/10 11:16:04;;;;;;;5.05;4.60;;;28.90;99.90;30.60;93977.00;;;;7380983;19;20145;-79
2023/06/10 11:18:39;;;;;;;5.68;5.18;;;29.60;99.90;29.10;93940.00;;;;7382220;19;20157;-80
2023/06/10 11:21:07;;;;;;;5.75;4.95;;;28.70;99.90;29.50;93932.00;;;;7380182;19;20156;-76
2023/06/10 11:23:42;;;;;;;5.20;4.30;;;28.50;99.90;30.30;93944.00;;;;7382396;19;20175;-77
2023/06/10 11:26:32;;;;;;;5.70;5.15;;;29.00;99.90;31.30;93949.00;;;;7380582;19;20140;-78
2023/06/10 11:29:10;;;;;;;7.15;4.63;;;29.60;99.90;31.00;93944.00;;;;7381670;19;20128;-77